sensor_id;sensor_type;location;lat;lon;timestamp;temperature;humidity
62154;DHT22;48140;45.486;9.226;2023-04-03T01:04:01;13.20;83.20
62154;DHT22;48140;45.486;9.226;2023-04-03T01:06:30;13.20;82.70
62154;DHT22;48140;45.486;9.226;2023-04-03T01:08:59;13.20;82.80
62154;DHT22;48140;45.486;9.226;2023-04-03T01:11:25;13.10;82.50
62154;DHT22;48140;45.486;9.226;2023-04-03T01:13:51;13.10;82.50
62154;DHT22;48140;45.486;9.226;2023-04-03T01:16:18;13.00;82.40
62154;DHT22;48140;45.486;9.226;2023-04-03T01:18:44;12.90;82.60
62154;DHT22;48140;45.486;9.226;2023-04-03T01:26:22;12.90;82.70
62154;DHT22;48140;45.486;9.226;2023-04-03T01:28:47;12.80;82.90
62154;DHT22;48140;45.486;9.226;2023-04-03T01:31:24;12.80;82.80
62154;DHT22;48140;45.486;9.226;2023-04-03T01:33:50;12.70;82.80
62154;DHT22;48140;45.486;9.226;2023-04-03T01:36:20;12.70;83.10
62154;DHT22;48140;45.486;9.226;2023-04-03T01:38:47;12.70;83.20
62154;DHT22;48140;45.486;9.226;2023-04-03T01:41:12;12.70;83.00
62154;DHT22;48140;45.486;9.226;2023-04-03T01:43:38;12.80;82.80
62154;DHT22;48140;45.486;9.226;2023-04-03T01:46:04;12.80;82.60
62154;DHT22;48140;45.486;9.226;2023-04-03T01:48:29;12.80;82.60
62154;DHT22;48140;45.486;9.226;2023-04-03T01:50:55;12.70;82.60
62154;DHT22;48140;45.486;9.226;2023-04-03T01:53:21;12.70;82.80
62154;DHT22;48140;45.486;9.226;2023-04-03T01:55:46;12.70;82.90
62154;DHT22;48140;45.486;9.226;2023-04-03T01:58:13;12.60;83.00
62154;DHT22;48140;45.486;9.226;2023-04-03T02:00:38;12.60;83.30
62154;DHT22;48140;45.486;9.226;2023-04-03T02:03:04;12.70;83.50
62154;DHT22;48140;45.486;9.226;2023-04-03T02:05:30;12.70;84.00
62154;DHT22;48140;45.486;9.226;2023-04-03T02:07:56;12.60;83.90
62154;DHT22;48140;45.486;9.226;2023-04-03T02:10:21;12.60;83.40
62154;DHT22;48140;45.486;9.226;2023-04-03T02:12:47;12.70;83.30
62154;DHT22;48140;45.486;9.226;2023-04-03T02:15:12;12.60;83.20
62154;DHT22;48140;45.486;9.226;2023-04-03T02:17:38;12.60;83.40
62154;DHT22;48140;45.486;9.226;2023-04-03T02:20:04;12.50;83.30
62154;DHT22;48140;45.486;9.226;2023-04-03T02:22:30;12.50;83.10
62154;DHT22;48140;45.486;9.226;2023-04-03T02:24:55;12.60;83.00
62154;DHT22;48140;45.486;9.226;2023-04-03T02:27:21;12.60;82.70
62154;DHT22;48140;45.486;9.226;2023-04-03T02:29:47;12.50;82.50
62154;DHT22;48140;45.486;9.226;2023-04-03T02:32:12;12.70;82.80
62154;DHT22;48140;45.486;9.226;2023-04-03T02:34:38;12.50;83.30
62154;DHT22;48140;45.486;9.226;2023-04-03T02:37:03;12.50;83.40
62154;DHT22;48140;45.486;9.226;2023-04-03T02:39:30;12.50;83.70
62154;DHT22;48140;45.486;9.226;2023-04-03T02:41:56;12.50;83.40
62154;DHT22;48140;45.486;9.226;2023-04-03T02:44:21;12.50;83.70
62154;DHT22;48140;45.486;9.226;2023-04-03T02:46:49;12.50;83.50
62154;DHT22;48140;45.486;9.226;2023-04-03T02:49:14;12.50;83.00
62154;DHT22;48140;45.486;9.226;2023-04-03T02:51:41;12.50;83.20
62154;DHT22;48140;45.486;9.226;2023-04-03T02:54:07;12.50;83.70
62154;DHT22;48140;45.486;9.226;2023-04-03T02:56:32;12.50;83.80
62154;DHT22;48140;45.486;9.226;2023-04-03T02:58:58;12.50;83.80
62154;DHT22;48140;45.486;9.226;2023-04-03T03:01:24;12.50;83.70
62154;DHT22;48140;45.486;9.226;2023-04-03T03:03:49;12.50;83.70
62154;DHT22;48140;45.486;9.226;2023-04-03T03:06:16;12.50;83.70
62154;DHT22;48140;45.486;9.226;2023-04-03T03:08:42;12.50;84.20
62154;DHT22;48140;45.486;9.226;2023-04-03T03:11:09;12.40;84.50
62154;DHT22;48140;45.486;9.226;2023-04-03T03:13:35;12.40;84.70
62154;DHT22;48140;45.486;9.226;2023-04-03T03:16:01;12.40;84.50
62154;DHT22;48140;45.486;9.226;2023-04-03T03:18:27;12.40;85.10
62154;DHT22;48140;45.486;9.226;2023-04-03T03:20:55;12.40;85.50
62154;DHT22;48140;45.486;9.226;2023-04-03T03:23:21;12.30;85.60
62154;DHT22;48140;45.486;9.226;2023-04-03T03:25:47;12.30;85.50
62154;DHT22;48140;45.486;9.226;2023-04-03T03:28:13;12.40;85.50
62154;DHT22;48140;45.486;9.226;2023-04-03T03:30:38;12.40;85.10
62154;DHT22;48140;45.486;9.226;2023-04-03T03:33:04;12.50;85.00
62154;DHT22;48140;45.486;9.226;2023-04-03T03:35:30;12.40;84.70
62154;DHT22;48140;45.486;9.226;2023-04-03T03:37:56;12.30;85.30
62154;DHT22;48140;45.486;9.226;2023-04-03T03:40:21;12.20;85.70
62154;DHT22;48140;45.486;9.226;2023-04-03T03:42:47;12.10;86.20
62154;DHT22;48140;45.486;9.226;2023-04-03T03:45:12;12.10;86.40
62154;DHT22;48140;45.486;9.226;2023-04-03T03:47:38;12.00;86.50
62154;DHT22;48140;45.486;9.226;2023-04-03T03:50:05;12.10;86.90
62154;DHT22;48140;45.486;9.226;2023-04-03T03:52:31;12.00;86.60
62154;DHT22;48140;45.486;9.226;2023-04-03T03:54:57;12.00;87.00
62154;DHT22;48140;45.486;9.226;2023-04-03T03:57:22;11.90;87.10
62154;DHT22;48140;45.486;9.226;2023-04-03T03:59:48;12.00;87.30
62154;DHT22;48140;45.486;9.226;2023-04-03T04:02:14;11.90;87.00
62154;DHT22;48140;45.486;9.226;2023-04-03T04:04:40;11.90;86.90
62154;DHT22;48140;45.486;9.226;2023-04-03T04:07:06;12.00;87.70
62154;DHT22;48140;45.486;9.226;2023-04-03T04:09:31;11.90;88.20
62154;DHT22;48140;45.486;9.226;2023-04-03T04:11:57;11.90;87.80
62154;DHT22;48140;45.486;9.226;2023-04-03T04:14:23;11.90;87.60
62154;DHT22;48140;45.486;9.226;2023-04-03T04:16:49;11.90;87.40
62154;DHT22;48140;45.486;9.226;2023-04-03T04:19:15;11.90;87.30
62154;DHT22;48140;45.486;9.226;2023-04-03T04:21:40;11.90;87.10
62154;DHT22;48140;45.486;9.226;2023-04-03T04:24:07;11.90;86.80
62154;DHT22;48140;45.486;9.226;2023-04-03T04:26:33;11.80;87.10
62154;DHT22;48140;45.486;9.226;2023-04-03T04:28:59;11.80;87.10
62154;DHT22;48140;45.486;9.226;2023-04-03T04:31:25;11.80;87.60
62154;DHT22;48140;45.486;9.226;2023-04-03T04:33:51;11.70;87.70
62154;DHT22;48140;45.486;9.226;2023-04-03T04:36:16;11.70;87.70
62154;DHT22;48140;45.486;9.226;2023-04-03T04:38:43;11.70;87.80
62154;DHT22;48140;45.486;9.226;2023-04-03T04:41:10;11.70;88.00
62154;DHT22;48140;45.486;9.226;2023-04-03T04:43:36;11.70;88.10
62154;DHT22;48140;45.486;9.226;2023-04-03T04:46:06;11.70;88.20
62154;DHT22;48140;45.486;9.226;2023-04-03T04:48:33;11.70;88.80
62154;DHT22;48140;45.486;9.226;2023-04-03T04:50:58;11.70;89.20
62154;DHT22;48140;45.486;9.226;2023-04-03T04:53:24;11.70;89.50
62154;DHT22;48140;45.486;9.226;2023-04-03T04:55:50;11.70;89.60
62154;DHT22;48140;45.486;9.226;2023-04-03T04:58:17;11.60;89.70
62154;DHT22;48140;45.486;9.226;2023-04-03T05:00:43;11.60;89.80
62154;DHT22;48140;45.486;9.226;2023-04-03T05:03:08;11.60;90.00
62154;DHT22;48140;45.486;9.226;2023-04-03T05:05:34;11.40;90.10
62154;DHT22;48140;45.486;9.226;2023-04-03T05:08:01;11.50;90.10
62154;DHT22;48140;45.486;9.226;2023-04-03T05:10:27;11.50;90.00
62154;DHT22;48140;45.486;9.226;2023-04-03T05:12:53;11.50;90.10
62154;DHT22;48140;45.486;9.226;2023-04-03T05:15:18;11.50;90.10
62154;DHT22;48140;45.486;9.226;2023-04-03T05:17:44;11.50;90.00
62154;DHT22;48140;45.486;9.226;2023-04-03T05:20:10;11.60;89.80
62154;DHT22;48140;45.486;9.226;2023-04-03T05:22:36;11.60;89.50
62154;DHT22;48140;45.486;9.226;2023-04-03T05:25:02;11.70;89.90
62154;DHT22;48140;45.486;9.226;2023-04-03T05:27:27;11.80;89.30
62154;DHT22;48140;45.486;9.226;2023-04-03T05:29:54;11.80;89.30
62154;DHT22;48140;45.486;9.226;2023-04-03T05:32:21;11.80;89.40
62154;DHT22;48140;45.486;9.226;2023-04-03T05:34:46;11.80;89.40
62154;DHT22;48140;45.486;9.226;2023-04-03T05:37:12;11.90;89.30
62154;DHT22;48140;45.486;9.226;2023-04-03T05:39:39;12.00;88.60
62154;DHT22;48140;45.486;9.226;2023-04-03T05:42:06;12.00;88.30
62154;DHT22;48140;45.486;9.226;2023-04-03T05:44:32;12.10;88.20
62154;DHT22;48140;45.486;9.226;2023-04-03T05:46:58;12.10;88.20
62154;DHT22;48140;45.486;9.226;2023-04-03T05:49:24;12.10;87.50
62154;DHT22;48140;45.486;9.226;2023-04-03T05:51:50;12.20;87.40
62154;DHT22;48140;45.486;9.226;2023-04-03T05:54:23;12.30;86.90
62154;DHT22;48140;45.486;9.226;2023-04-03T05:56:50;12.30;86.90
62154;DHT22;48140;45.486;9.226;2023-04-03T05:59:16;12.30;87.00
62154;DHT22;48140;45.486;9.226;2023-04-03T06:01:42;12.40;86.70
62154;DHT22;48140;45.486;9.226;2023-04-03T06:04:09;12.40;86.60
62154;DHT22;48140;45.486;9.226;2023-04-03T06:09:17;12.40;87.50
62154;DHT22;48140;45.486;9.226;2023-04-03T06:11:44;12.40;87.40
62154;DHT22;48140;45.486;9.226;2023-04-03T06:14:10;12.40;85.80
62154;DHT22;48140;45.486;9.226;2023-04-03T06:16:36;12.40;85.10
62154;DHT22;48140;45.486;9.226;2023-04-03T06:19:02;12.40;85.60
62154;DHT22;48140;45.486;9.226;2023-04-03T06:21:29;12.40;84.90
62154;DHT22;48140;45.486;9.226;2023-04-03T06:23:55;12.50;85.50
62154;DHT22;48140;45.486;9.226;2023-04-03T06:26:21;12.60;83.90
62154;DHT22;48140;45.486;9.226;2023-04-03T06:28:47;12.60;83.20
62154;DHT22;48140;45.486;9.226;2023-04-03T06:31:13;12.70;81.90
62154;DHT22;48140;45.486;9.226;2023-04-03T06:33:39;12.70;81.60
62154;DHT22;48140;45.486;9.226;2023-04-03T06:36:05;12.90;80.60
62154;DHT22;48140;45.486;9.226;2023-04-03T06:38:33;12.90;80.00
62154;DHT22;48140;45.486;9.226;2023-04-03T06:40:58;13.00;79.50
62154;DHT22;48140;45.486;9.226;2023-04-03T06:43:24;13.10;77.50
62154;DHT22;48140;45.486;9.226;2023-04-03T06:45:50;13.00;78.00
62154;DHT22;48140;45.486;9.226;2023-04-03T06:48:16;13.10;76.30
62154;DHT22;48140;45.486;9.226;2023-04-03T06:50:42;13.10;76.20
62154;DHT22;48140;45.486;9.226;2023-04-03T06:53:08;13.30;75.70
62154;DHT22;48140;45.486;9.226;2023-04-03T06:55:33;13.40;74.70
62154;DHT22;48140;45.486;9.226;2023-04-03T06:57:59;13.50;74.20
62154;DHT22;48140;45.486;9.226;2023-04-03T07:00:25;13.60;74.00
62154;DHT22;48140;45.486;9.226;2023-04-03T07:02:51;13.70;72.80
62154;DHT22;48140;45.486;9.226;2023-04-03T07:05:17;13.70;71.90
62154;DHT22;48140;45.486;9.226;2023-04-03T07:07:43;13.80;71.00
62154;DHT22;48140;45.486;9.226;2023-04-03T07:10:10;13.90;70.80
62154;DHT22;48140;45.486;9.226;2023-04-03T07:12:36;14.10;70.10
62154;DHT22;48140;45.486;9.226;2023-04-03T07:15:04;14.20;69.10
62154;DHT22;48140;45.486;9.226;2023-04-03T07:17:30;14.20;67.80
62154;DHT22;48140;45.486;9.226;2023-04-03T07:19:56;14.30;68.00
62154;DHT22;48140;45.486;9.226;2023-04-03T07:22:22;14.30;67.70
62154;DHT22;48140;45.486;9.226;2023-04-03T07:24:47;14.50;66.70
62154;DHT22;48140;45.486;9.226;2023-04-03T07:27:13;14.50;67.20
62154;DHT22;48140;45.486;9.226;2023-04-03T07:29:39;14.60;66.10
62154;DHT22;48140;45.486;9.226;2023-04-03T07:32:05;14.60;66.90
62154;DHT22;48140;45.486;9.226;2023-04-03T07:34:32;14.70;67.10
62154;DHT22;48140;45.486;9.226;2023-04-03T07:36:58;14.80;67.20
62154;DHT22;48140;45.486;9.226;2023-04-03T07:39:24;14.80;66.80
62154;DHT22;48140;45.486;9.226;2023-04-03T07:41:50;14.90;68.30
62154;DHT22;48140;45.486;9.226;2023-04-03T07:44:17;14.90;68.40
62154;DHT22;48140;45.486;9.226;2023-04-03T07:46:42;15.00;67.60
62154;DHT22;48140;45.486;9.226;2023-04-03T07:49:08;15.10;68.10
62154;DHT22;48140;45.486;9.226;2023-04-03T07:51:34;15.10;67.50
62154;DHT22;48140;45.486;9.226;2023-04-03T07:53:59;15.20;67.30
62154;DHT22;48140;45.486;9.226;2023-04-03T07:56:25;15.20;68.20
62154;DHT22;48140;45.486;9.226;2023-04-03T07:58:51;15.10;68.00
62154;DHT22;48140;45.486;9.226;2023-04-03T08:01:16;15.20;68.20
62154;DHT22;48140;45.486;9.226;2023-04-03T08:03:42;15.30;68.40
62154;DHT22;48140;45.486;9.226;2023-04-03T08:06:08;15.40;67.90
62154;DHT22;48140;45.486;9.226;2023-04-03T08:08:34;15.40;68.40
62154;DHT22;48140;45.486;9.226;2023-04-03T08:11:01;15.30;68.60
62154;DHT22;48140;45.486;9.226;2023-04-03T08:13:28;15.40;68.10
62154;DHT22;48140;45.486;9.226;2023-04-03T08:15:55;15.50;68.00
62154;DHT22;48140;45.486;9.226;2023-04-03T08:18:23;15.60;67.80
62154;DHT22;48140;45.486;9.226;2023-04-03T08:20:50;15.80;67.20
62154;DHT22;48140;45.486;9.226;2023-04-03T08:23:16;15.90;66.40
62154;DHT22;48140;45.486;9.226;2023-04-03T08:25:43;16.00;66.20
62154;DHT22;48140;45.486;9.226;2023-04-03T08:28:10;16.10;64.50
62154;DHT22;48140;45.486;9.226;2023-04-03T08:30:39;16.10;64.40
62154;DHT22;48140;45.486;9.226;2023-04-03T08:33:05;16.20;64.90
62154;DHT22;48140;45.486;9.226;2023-04-03T08:35:31;16.20;64.90
62154;DHT22;48140;45.486;9.226;2023-04-03T08:37:57;16.20;64.20
62154;DHT22;48140;45.486;9.226;2023-04-03T08:40:23;16.20;64.70
62154;DHT22;48140;45.486;9.226;2023-04-03T08:45:34;16.40;65.00
62154;DHT22;48140;45.486;9.226;2023-04-03T08:48:08;16.50;65.00
62154;DHT22;48140;45.486;9.226;2023-04-03T08:50:40;16.50;64.80
62154;DHT22;48140;45.486;9.226;2023-04-03T08:53:14;16.70;65.10
62154;DHT22;48140;45.486;9.226;2023-04-03T08:55:50;16.50;65.00
62154;DHT22;48140;45.486;9.226;2023-04-03T08:58:29;16.60;64.90
62154;DHT22;48140;45.486;9.226;2023-04-03T09:01:03;16.50;66.70
62154;DHT22;48140;45.486;9.226;2023-04-03T09:03:32;16.60;67.10
62154;DHT22;48140;45.486;9.226;2023-04-03T09:08:40;16.90;64.80
62154;DHT22;48140;45.486;9.226;2023-04-03T09:11:27;16.90;66.40
62154;DHT22;48140;45.486;9.226;2023-04-03T09:14:01;16.90;66.10
62154;DHT22;48140;45.486;9.226;2023-04-03T09:19:09;17.20;65.50
62154;DHT22;48140;45.486;9.226;2023-04-03T09:21:39;17.40;64.20
62154;DHT22;48140;45.486;9.226;2023-04-03T09:24:09;17.30;64.50
62154;DHT22;48140;45.486;9.226;2023-04-03T09:26:43;17.50;63.70
62154;DHT22;48140;45.486;9.226;2023-04-03T09:29:14;17.50;63.30
62154;DHT22;48140;45.486;9.226;2023-04-03T09:31:43;17.70;62.80
62154;DHT22;48140;45.486;9.226;2023-04-03T09:36:57;18.10;60.10
62154;DHT22;48140;45.486;9.226;2023-04-03T09:39:28;18.20;60.60
62154;DHT22;48140;45.486;9.226;2023-04-03T09:42:15;18.30;58.60
62154;DHT22;48140;45.486;9.226;2023-04-03T09:44:54;18.30;58.70
62154;DHT22;48140;45.486;9.226;2023-04-03T09:47:31;18.30;56.90
62154;DHT22;48140;45.486;9.226;2023-04-03T09:50:28;18.50;57.90
62154;DHT22;48140;45.486;9.226;2023-04-03T09:52:54;18.60;59.10
62154;DHT22;48140;45.486;9.226;2023-04-03T09:55:22;18.60;56.50
62154;DHT22;48140;45.486;9.226;2023-04-03T09:57:53;18.70;54.90
62154;DHT22;48140;45.486;9.226;2023-04-03T10:00:26;18.50;54.70
62154;DHT22;48140;45.486;9.226;2023-04-03T10:02:56;18.70;55.20
62154;DHT22;48140;45.486;9.226;2023-04-03T10:05:26;18.80;55.60
62154;DHT22;48140;45.486;9.226;2023-04-03T10:10:32;19.10;52.20
62154;DHT22;48140;45.486;9.226;2023-04-03T10:13:09;19.20;53.00
62154;DHT22;48140;45.486;9.226;2023-04-03T10:15:42;19.20;53.90
62154;DHT22;48140;45.486;9.226;2023-04-03T10:20:49;19.60;51.90
62154;DHT22;48140;45.486;9.226;2023-04-03T10:23:23;19.60;50.60
62154;DHT22;48140;45.486;9.226;2023-04-03T10:28:33;19.60;51.00
62154;DHT22;48140;45.486;9.226;2023-04-03T10:33:55;20.10;49.00
62154;DHT22;48140;45.486;9.226;2023-04-03T10:36:43;20.40;47.80
62154;DHT22;48140;45.486;9.226;2023-04-03T10:42:41;20.70;45.40
62154;DHT22;48140;45.486;9.226;2023-04-03T10:45:23;20.80;43.70
62154;DHT22;48140;45.486;9.226;2023-04-03T10:56:39;21.00;44.20
62154;DHT22;48140;45.486;9.226;2023-04-03T10:59:33;20.50;45.30
62154;DHT22;48140;45.486;9.226;2023-04-03T11:02:06;20.70;43.50
62154;DHT22;48140;45.486;9.226;2023-04-03T11:04:36;21.20;42.20
62154;DHT22;48140;45.486;9.226;2023-04-03T11:07:20;21.70;40.80
62154;DHT22;48140;45.486;9.226;2023-04-03T11:09:50;21.90;41.10
62154;DHT22;48140;45.486;9.226;2023-04-03T11:12:25;22.00;40.70
62154;DHT22;48140;45.486;9.226;2023-04-03T11:14:53;21.60;39.50
62154;DHT22;48140;45.486;9.226;2023-04-03T11:22:33;22.40;39.70
62154;DHT22;48140;45.486;9.226;2023-04-03T11:27:55;22.80;37.40
62154;DHT22;48140;45.486;9.226;2023-04-03T11:30:30;23.10;36.10
62154;DHT22;48140;45.486;9.226;2023-04-03T11:36:03;23.10;34.80
62154;DHT22;48140;45.486;9.226;2023-04-03T11:38:35;23.30;35.30
62154;DHT22;48140;45.486;9.226;2023-04-03T11:41:03;23.50;34.50
62154;DHT22;48140;45.486;9.226;2023-04-03T11:43:32;23.70;33.30
62154;DHT22;48140;45.486;9.226;2023-04-03T11:46:03;23.80;34.00
62154;DHT22;48140;45.486;9.226;2023-04-03T11:51:42;23.60;33.50
62154;DHT22;48140;45.486;9.226;2023-04-03T11:53:44;23.20;33.90
62154;DHT22;48140;45.486;9.226;2023-04-03T12:02:19;22.40;36.70
62154;DHT22;48140;45.486;9.226;2023-04-03T12:04:36;23.30;35.30
62154;DHT22;48140;45.486;9.226;2023-04-03T12:07:13;23.40;34.40
62154;DHT22;48140;45.486;9.226;2023-04-03T12:15:22;24.00;33.60
62154;DHT22;48140;45.486;9.226;2023-04-03T12:17:49;24.10;32.90
62154;DHT22;48140;45.486;9.226;2023-04-03T12:23:30;24.50;31.90
62154;DHT22;48140;45.486;9.226;2023-04-03T12:26:08;24.90;30.60
62154;DHT22;48140;45.486;9.226;2023-04-03T12:28:45;24.50;30.50
62154;DHT22;48140;45.486;9.226;2023-04-03T12:31:12;24.20;31.00
62154;DHT22;48140;45.486;9.226;2023-04-03T12:33:56;24.40;30.00
62154;DHT22;48140;45.486;9.226;2023-04-03T12:36:37;24.70;30.00
62154;DHT22;48140;45.486;9.226;2023-04-03T12:39:24;24.30;30.50
62154;DHT22;48140;45.486;9.226;2023-04-03T12:45:21;23.90;31.50
62154;DHT22;48140;45.486;9.226;2023-04-03T12:47:49;23.00;33.50
62154;DHT22;48140;45.486;9.226;2023-04-03T12:53:32;23.60;32.80
62154;DHT22;48140;45.486;9.226;2023-04-03T12:55:58;24.20;31.60
62154;DHT22;48140;45.486;9.226;2023-04-03T12:58:42;24.30;30.50
62154;DHT22;48140;45.486;9.226;2023-04-03T13:01:13;24.40;30.00
62154;DHT22;48140;45.486;9.226;2023-04-03T13:03:42;24.40;30.40
62154;DHT22;48140;45.486;9.226;2023-04-03T13:06:27;24.70;30.00
62154;DHT22;48140;45.486;9.226;2023-04-03T13:08:59;25.30;28.90
62154;DHT22;48140;45.486;9.226;2023-04-03T13:11:40;25.20;28.90
62154;DHT22;48140;45.486;9.226;2023-04-03T13:14:33;25.30;28.40
62154;DHT22;48140;45.486;9.226;2023-04-03T13:17:16;25.10;28.70
62154;DHT22;48140;45.486;9.226;2023-04-03T13:19:43;25.20;28.40
62154;DHT22;48140;45.486;9.226;2023-04-03T13:24:51;25.00;28.60
62154;DHT22;48140;45.486;9.226;2023-04-03T13:27:17;25.10;28.30
62154;DHT22;48140;45.486;9.226;2023-04-03T13:29:45;24.90;28.80
62154;DHT22;48140;45.486;9.226;2023-04-03T13:32:19;24.90;29.00
62154;DHT22;48140;45.486;9.226;2023-04-03T13:34:45;24.60;29.50
62154;DHT22;48140;45.486;9.226;2023-04-03T13:37:21;24.70;29.20
62154;DHT22;48140;45.486;9.226;2023-04-03T13:42:33;25.30;28.70
62154;DHT22;48140;45.486;9.226;2023-04-03T13:47:41;25.30;28.40
62154;DHT22;48140;45.486;9.226;2023-04-03T13:50:17;25.40;28.40
62154;DHT22;48140;45.486;9.226;2023-04-03T13:52:51;25.10;28.60
62154;DHT22;48140;45.486;9.226;2023-04-03T13:55:28;25.00;28.80
62154;DHT22;48140;45.486;9.226;2023-04-03T14:00:38;25.00;28.60
62154;DHT22;48140;45.486;9.226;2023-04-03T14:03:39;24.70;29.20
62154;DHT22;48140;45.486;9.226;2023-04-03T14:06:07;24.40;29.80
62154;DHT22;48140;45.486;9.226;2023-04-03T14:08:33;24.20;30.70
62154;DHT22;48140;45.486;9.226;2023-04-03T14:10:59;24.30;29.90
62154;DHT22;48140;45.486;9.226;2023-04-03T14:13:25;24.10;30.10
62154;DHT22;48140;45.486;9.226;2023-04-03T14:15:51;24.10;30.10
62154;DHT22;48140;45.486;9.226;2023-04-03T14:18:19;24.10;29.70
62154;DHT22;48140;45.486;9.226;2023-04-03T14:20:46;23.90;29.80
62154;DHT22;48140;45.486;9.226;2023-04-03T14:23:12;23.40;30.90
62154;DHT22;48140;45.486;9.226;2023-04-03T14:25:38;23.40;31.40
62154;DHT22;48140;45.486;9.226;2023-04-03T14:28:20;23.50;31.80
62154;DHT22;48140;45.486;9.226;2023-04-03T14:30:48;23.90;31.70
62154;DHT22;48140;45.486;9.226;2023-04-03T14:33:18;23.90;31.70
62154;DHT22;48140;45.486;9.226;2023-04-03T14:35:44;23.80;31.90
62154;DHT22;48140;45.486;9.226;2023-04-03T14:38:25;23.80;32.60
62154;DHT22;48140;45.486;9.226;2023-04-03T14:40:51;23.80;32.30
62154;DHT22;48140;45.486;9.226;2023-04-03T14:43:17;24.10;31.90
62154;DHT22;48140;45.486;9.226;2023-04-03T14:45:44;24.00;31.70
62154;DHT22;48140;45.486;9.226;2023-04-03T14:48:21;24.50;30.70
62154;DHT22;48140;45.486;9.226;2023-04-03T14:50:50;24.80;30.30
62154;DHT22;48140;45.486;9.226;2023-04-03T14:53:16;24.90;29.90
62154;DHT22;48140;45.486;9.226;2023-04-03T14:55:47;24.40;30.00
62154;DHT22;48140;45.486;9.226;2023-04-03T14:58:15;24.40;30.50
62154;DHT22;48140;45.486;9.226;2023-04-03T15:00:41;23.80;30.90
62154;DHT22;48140;45.486;9.226;2023-04-03T15:03:16;23.30;31.80
62154;DHT22;48140;45.486;9.226;2023-04-03T15:05:44;22.80;32.90
62154;DHT22;48140;45.486;9.226;2023-04-03T15:08:30;22.30;33.20
62154;DHT22;48140;45.486;9.226;2023-04-03T15:10:56;21.60;34.60
62154;DHT22;48140;45.486;9.226;2023-04-03T15:13:23;21.00;35.40
62154;DHT22;48140;45.486;9.226;2023-04-03T15:15:49;20.50;36.30
62154;DHT22;48140;45.486;9.226;2023-04-03T15:18:20;20.20;36.90
62154;DHT22;48140;45.486;9.226;2023-04-03T15:20:46;20.10;37.80
62154;DHT22;48140;45.486;9.226;2023-04-03T15:23:14;19.90;38.00
62154;DHT22;48140;45.486;9.226;2023-04-03T15:25:45;19.70;38.60
62154;DHT22;48140;45.486;9.226;2023-04-03T15:28:23;19.50;39.00
62154;DHT22;48140;45.486;9.226;2023-04-03T15:30:52;19.20;39.80
62154;DHT22;48140;45.486;9.226;2023-04-03T15:33:18;18.80;40.90
62154;DHT22;48140;45.486;9.226;2023-04-03T15:35:44;18.90;40.90
62154;DHT22;48140;45.486;9.226;2023-04-03T15:38:10;18.90;41.20
62154;DHT22;48140;45.486;9.226;2023-04-03T15:40:36;18.80;41.20
62154;DHT22;48140;45.486;9.226;2023-04-03T15:43:02;18.80;42.10
62154;DHT22;48140;45.486;9.226;2023-04-03T15:45:31;18.40;41.30
62154;DHT22;48140;45.486;9.226;2023-04-03T15:47:57;18.40;41.50
62154;DHT22;48140;45.486;9.226;2023-04-03T15:50:23;18.40;41.60
62154;DHT22;48140;45.486;9.226;2023-04-03T15:52:50;18.30;42.00
62154;DHT22;48140;45.486;9.226;2023-04-03T15:55:24;18.20;41.80
62154;DHT22;48140;45.486;9.226;2023-04-03T15:57:50;18.20;41.70
62154;DHT22;48140;45.486;9.226;2023-04-03T16:00:16;18.50;41.30
62154;DHT22;48140;45.486;9.226;2023-04-03T16:02:44;18.70;41.10
62154;DHT22;48140;45.486;9.226;2023-04-03T16:05:11;18.90;40.00
62154;DHT22;48140;45.486;9.226;2023-04-03T16:07:38;19.50;38.90
62154;DHT22;48140;45.486;9.226;2023-04-03T16:10:06;19.80;38.20
62154;DHT22;48140;45.486;9.226;2023-04-03T16:12:32;20.40;36.70
62154;DHT22;48140;45.486;9.226;2023-04-03T16:14:57;20.70;35.70
62154;DHT22;48140;45.486;9.226;2023-04-03T16:17:26;20.50;35.50
62154;DHT22;48140;45.486;9.226;2023-04-03T16:19:52;20.20;36.20
62154;DHT22;48140;45.486;9.226;2023-04-03T16:22:19;19.50;36.60
62154;DHT22;48140;45.486;9.226;2023-04-03T16:24:44;19.20;38.40
62154;DHT22;48140;45.486;9.226;2023-04-03T16:27:10;18.80;38.70
62154;DHT22;48140;45.486;9.226;2023-04-03T16:29:36;18.40;39.40
62154;DHT22;48140;45.486;9.226;2023-04-03T16:32:02;18.10;41.10
62154;DHT22;48140;45.486;9.226;2023-04-03T16:34:28;17.60;41.20
62154;DHT22;48140;45.486;9.226;2023-04-03T16:36:56;17.60;41.70
62154;DHT22;48140;45.486;9.226;2023-04-03T16:39:21;17.30;42.30
62154;DHT22;48140;45.486;9.226;2023-04-03T16:41:47;17.10;43.00
62154;DHT22;48140;45.486;9.226;2023-04-03T16:44:13;17.00;43.60
62154;DHT22;48140;45.486;9.226;2023-04-03T16:46:39;16.90;43.90
62154;DHT22;48140;45.486;9.226;2023-04-03T16:49:04;16.80;44.40
62154;DHT22;48140;45.486;9.226;2023-04-03T16:51:30;16.90;44.40
62154;DHT22;48140;45.486;9.226;2023-04-03T16:53:57;16.70;44.50
62154;DHT22;48140;45.486;9.226;2023-04-03T16:56:22;16.70;44.10
62154;DHT22;48140;45.486;9.226;2023-04-03T16:58:48;16.50;44.70
62154;DHT22;48140;45.486;9.226;2023-04-03T17:01:19;16.60;44.90
62154;DHT22;48140;45.486;9.226;2023-04-03T17:03:45;16.60;44.60
62154;DHT22;48140;45.486;9.226;2023-04-03T17:06:13;16.50;45.20
62154;DHT22;48140;45.486;9.226;2023-04-03T17:08:46;16.60;44.60
62154;DHT22;48140;45.486;9.226;2023-04-03T17:11:12;16.80;44.00
62154;DHT22;48140;45.486;9.226;2023-04-03T17:13:38;16.90;43.40
62154;DHT22;48140;45.486;9.226;2023-04-03T17:16:07;17.00;43.40
62154;DHT22;48140;45.486;9.226;2023-04-03T17:18:34;17.00;42.70
62154;DHT22;48140;45.486;9.226;2023-04-03T17:21:01;16.70;43.00
62154;DHT22;48140;45.486;9.226;2023-04-03T17:23:27;16.50;43.80
62154;DHT22;48140;45.486;9.226;2023-04-03T17:25:54;16.10;44.10
62154;DHT22;48140;45.486;9.226;2023-04-03T17:28:21;16.10;44.70
62154;DHT22;48140;45.486;9.226;2023-04-03T17:30:53;15.90;45.30
62154;DHT22;48140;45.486;9.226;2023-04-03T17:33:19;15.80;45.70
62154;DHT22;48140;45.486;9.226;2023-04-03T17:35:44;15.80;45.90
62154;DHT22;48140;45.486;9.226;2023-04-03T17:38:10;15.60;46.70
62154;DHT22;48140;45.486;9.226;2023-04-03T17:40:35;15.40;46.80
62154;DHT22;48140;45.486;9.226;2023-04-03T17:43:01;15.40;47.30
62154;DHT22;48140;45.486;9.226;2023-04-03T17:45:27;15.40;47.60
62154;DHT22;48140;45.486;9.226;2023-04-03T17:47:53;15.40;47.50
62154;DHT22;48140;45.486;9.226;2023-04-03T17:50:19;15.30;48.00
62154;DHT22;48140;45.486;9.226;2023-04-03T17:52:44;15.30;48.20
62154;DHT22;48140;45.486;9.226;2023-04-03T17:55:10;15.20;48.70
62154;DHT22;48140;45.486;9.226;2023-04-03T17:57:37;15.20;49.60
62154;DHT22;48140;45.486;9.226;2023-04-03T18:00:04;15.20;49.50
62154;DHT22;48140;45.486;9.226;2023-04-03T18:02:30;15.20;49.90
62154;DHT22;48140;45.486;9.226;2023-04-03T18:04:56;15.00;50.20
62154;DHT22;48140;45.486;9.226;2023-04-03T18:07:22;14.90;51.00